Terminal Aerodrome Forecast
Issued by NWS Albany, NY

Home | Current Version | Previous Version | Text Only | Print | Product List | Glossary On
Versions: 1 2 3 4 5 6 7 8 9 10 11 12 13 14 15 16 17 18 19 20 21 22 23 24
077
FTUS41 KALY 282324
TAFGFL
TAF
KGFL 282324Z 2900/2924 19008KT P6SM VCSH SCT050 BKN100
     FM290500 21004KT P6SM SCT025 BKN040 OVC070
     FM291300 33008KT P6SM SCT040
     FM291700 34010KT P6SM FEW040=

USA.gov is the U.S. government's official web portal to all federal, state and local government web resources and services.